sensor_id;sensor_type;location;lat;lon;timestamp;temperature;humidity
52869;DHT22;39100;53.480;6.158;2023-02-22T00:00:17;8.90;99.90
52869;DHT22;39100;53.480;6.158;2023-02-22T00:02:45;8.90;99.90
52869;DHT22;39100;53.480;6.158;2023-02-22T00:05:10;8.90;99.90
52869;DHT22;39100;53.480;6.158;2023-02-22T00:07:39;8.90;99.90
52869;DHT22;39100;53.480;6.158;2023-02-22T00:10:05;8.90;99.90
52869;DHT22;39100;53.480;6.158;2023-02-22T00:12:41;8.90;99.90
52869;DHT22;39100;53.480;6.158;2023-02-22T00:15:07;8.90;99.90
52869;DHT22;39100;53.480;6.158;2023-02-22T00:17:33;8.90;99.90
52869;DHT22;39100;53.480;6.158;2023-02-22T00:19:59;8.90;99.90
52869;DHT22;39100;53.480;6.158;2023-02-22T00:22:25;8.90;99.90
52869;DHT22;39100;53.480;6.158;2023-02-22T00:24:50;8.80;99.90
52869;DHT22;39100;53.480;6.158;2023-02-22T00:27:16;8.80;99.90
52869;DHT22;39100;53.480;6.158;2023-02-22T00:29:45;8.80;99.90
52869;DHT22;39100;53.480;6.158;2023-02-22T00:32:11;8.80;99.90
52869;DHT22;39100;53.480;6.158;2023-02-22T00:34:37;8.80;99.90
52869;DHT22;39100;53.480;6.158;2023-02-22T00:37:03;8.90;99.90
52869;DHT22;39100;53.480;6.158;2023-02-22T00:39:29;8.80;99.90
52869;DHT22;39100;53.480;6.158;2023-02-22T00:41:55;8.80;99.90
52869;DHT22;39100;53.480;6.158;2023-02-22T00:44:21;8.90;99.90
52869;DHT22;39100;53.480;6.158;2023-02-22T00:46:47;8.80;99.90
52869;DHT22;39100;53.480;6.158;2023-02-22T00:49:14;8.80;99.90
52869;DHT22;39100;53.480;6.158;2023-02-22T00:51:40;8.80;99.90
52869;DHT22;39100;53.480;6.158;2023-02-22T00:54:06;8.60;99.90
52869;DHT22;39100;53.480;6.158;2023-02-22T00:56:33;8.60;99.90
52869;DHT22;39100;53.480;6.158;2023-02-22T00:58:59;8.60;99.90
52869;DHT22;39100;53.480;6.158;2023-02-22T01:01:26;8.60;99.90
52869;DHT22;39100;53.480;6.158;2023-02-22T01:03:52;8.50;99.90
52869;DHT22;39100;53.480;6.158;2023-02-22T01:06:18;8.50;99.90
52869;DHT22;39100;53.480;6.158;2023-02-22T01:08:45;8.50;99.90
52869;DHT22;39100;53.480;6.158;2023-02-22T01:11:11;8.50;99.90
52869;DHT22;39100;53.480;6.158;2023-02-22T01:13:37;8.50;99.90
52869;DHT22;39100;53.480;6.158;2023-02-22T01:16:04;8.50;99.90
52869;DHT22;39100;53.480;6.158;2023-02-22T01:18:33;8.50;99.90
52869;DHT22;39100;53.480;6.158;2023-02-22T01:21:00;8.40;99.90
52869;DHT22;39100;53.480;6.158;2023-02-22T01:23:26;8.50;99.90
52869;DHT22;39100;53.480;6.158;2023-02-22T01:25:52;8.50;99.90
52869;DHT22;39100;53.480;6.158;2023-02-22T01:28:17;9.10;99.90
52869;DHT22;39100;53.480;6.158;2023-02-22T01:30:43;8.50;99.90
52869;DHT22;39100;53.480;6.158;2023-02-22T01:33:08;8.50;99.90
52869;DHT22;39100;53.480;6.158;2023-02-22T01:35:37;8.50;99.90
52869;DHT22;39100;53.480;6.158;2023-02-22T01:38:05;8.50;99.90
52869;DHT22;39100;53.480;6.158;2023-02-22T01:40:34;8.50;99.90
52869;DHT22;39100;53.480;6.158;2023-02-22T01:43:08;8.50;99.90
52869;DHT22;39100;53.480;6.158;2023-02-22T01:45:46;8.50;99.90
52869;DHT22;39100;53.480;6.158;2023-02-22T01:48:41;8.50;99.90
52869;DHT22;39100;53.480;6.158;2023-02-22T01:51:15;8.50;99.90
52869;DHT22;39100;53.480;6.158;2023-02-22T01:54:04;8.50;99.90
52869;DHT22;39100;53.480;6.158;2023-02-22T01:56:34;8.60;99.90
52869;DHT22;39100;53.480;6.158;2023-02-22T01:59:05;8.50;99.90
52869;DHT22;39100;53.480;6.158;2023-02-22T02:01:32;8.50;99.90
52869;DHT22;39100;53.480;6.158;2023-02-22T02:04:02;8.50;99.90
52869;DHT22;39100;53.480;6.158;2023-02-22T02:06:32;8.50;99.90
52869;DHT22;39100;53.480;6.158;2023-02-22T02:09:08;8.50;99.90
52869;DHT22;39100;53.480;6.158;2023-02-22T02:11:35;8.50;99.90
52869;DHT22;39100;53.480;6.158;2023-02-22T02:14:05;8.50;99.90
52869;DHT22;39100;53.480;6.158;2023-02-22T02:16:40;8.50;99.90
52869;DHT22;39100;53.480;6.158;2023-02-22T02:20:00;8.50;99.90
52869;DHT22;39100;53.480;6.158;2023-02-22T02:22:11;8.50;99.90
52869;DHT22;39100;53.480;6.158;2023-02-22T02:27:25;8.50;99.90
52869;DHT22;39100;53.480;6.158;2023-02-22T02:30:07;8.50;99.90
52869;DHT22;39100;53.480;6.158;2023-02-22T02:32:51;8.50;99.90
52869;DHT22;39100;53.480;6.158;2023-02-22T02:35:37;8.50;99.90
52869;DHT22;39100;53.480;6.158;2023-02-22T02:38:11;8.50;99.90
52869;DHT22;39100;53.480;6.158;2023-02-22T02:40:45;8.50;99.90
52869;DHT22;39100;53.480;6.158;2023-02-22T02:46:43;8.40;99.90
52869;DHT22;39100;53.480;6.158;2023-02-22T02:49:18;8.40;99.90
52869;DHT22;39100;53.480;6.158;2023-02-22T02:51:49;8.50;99.90
52869;DHT22;39100;53.480;6.158;2023-02-22T02:54:16;8.50;99.90
52869;DHT22;39100;53.480;6.158;2023-02-22T02:56:42;8.50;99.90
52869;DHT22;39100;53.480;6.158;2023-02-22T02:59:28;8.50;99.90
52869;DHT22;39100;53.480;6.158;2023-02-22T03:24:21;8.50;99.90
52869;DHT22;39100;53.480;6.158;2023-02-22T03:29:30;8.50;99.90
52869;DHT22;39100;53.480;6.158;2023-02-22T03:32:00;8.50;99.90
52869;DHT22;39100;53.480;6.158;2023-02-22T03:34:33;8.50;99.90
52869;DHT22;39100;53.480;6.158;2023-02-22T03:37:01;8.50;99.90
52869;DHT22;39100;53.480;6.158;2023-02-22T03:39:28;8.40;99.90
52869;DHT22;39100;53.480;6.158;2023-02-22T03:42:00;8.40;99.90
52869;DHT22;39100;53.480;6.158;2023-02-22T03:44:30;8.40;99.90
52869;DHT22;39100;53.480;6.158;2023-02-22T03:47:01;8.40;99.90
52869;DHT22;39100;53.480;6.158;2023-02-22T03:49:34;8.40;99.90
52869;DHT22;39100;53.480;6.158;2023-02-22T03:52:01;8.40;99.90
52869;DHT22;39100;53.480;6.158;2023-02-22T03:54:27;8.40;99.90
52869;DHT22;39100;53.480;6.158;2023-02-22T03:57:07;8.40;99.90
52869;DHT22;39100;53.480;6.158;2023-02-22T03:59:34;8.40;99.90
52869;DHT22;39100;53.480;6.158;2023-02-22T04:02:00;8.40;99.90
52869;DHT22;39100;53.480;6.158;2023-02-22T04:04:26;8.40;99.90
52869;DHT22;39100;53.480;6.158;2023-02-22T04:06:52;8.40;99.90
52869;DHT22;39100;53.480;6.158;2023-02-22T04:09:19;8.40;99.90
52869;DHT22;39100;53.480;6.158;2023-02-22T04:11:45;8.40;99.90
52869;DHT22;39100;53.480;6.158;2023-02-22T04:14:11;8.40;99.90
52869;DHT22;39100;53.480;6.158;2023-02-22T04:16:37;8.40;99.90
52869;DHT22;39100;53.480;6.158;2023-02-22T04:19:02;8.40;99.90
52869;DHT22;39100;53.480;6.158;2023-02-22T04:21:28;8.40;99.90
52869;DHT22;39100;53.480;6.158;2023-02-22T04:23:54;8.30;99.90
52869;DHT22;39100;53.480;6.158;2023-02-22T04:26:19;8.30;99.90
52869;DHT22;39100;53.480;6.158;2023-02-22T04:28:45;8.30;99.90
52869;DHT22;39100;53.480;6.158;2023-02-22T04:31:10;8.30;99.90
52869;DHT22;39100;53.480;6.158;2023-02-22T04:33:36;8.30;99.90
52869;DHT22;39100;53.480;6.158;2023-02-22T04:36:01;8.30;99.90
52869;DHT22;39100;53.480;6.158;2023-02-22T04:38:27;8.30;99.90
52869;DHT22;39100;53.480;6.158;2023-02-22T04:40:53;8.30;99.90
52869;DHT22;39100;53.480;6.158;2023-02-22T04:43:20;8.30;99.90
52869;DHT22;39100;53.480;6.158;2023-02-22T04:45:45;8.30;99.90
52869;DHT22;39100;53.480;6.158;2023-02-22T04:48:11;8.20;99.90
52869;DHT22;39100;53.480;6.158;2023-02-22T04:50:36;8.20;99.90
52869;DHT22;39100;53.480;6.158;2023-02-22T04:53:02;8.20;99.90
52869;DHT22;39100;53.480;6.158;2023-02-22T04:55:28;8.20;99.90
52869;DHT22;39100;53.480;6.158;2023-02-22T04:57:55;8.20;99.90
52869;DHT22;39100;53.480;6.158;2023-02-22T05:00:21;8.20;99.90
52869;DHT22;39100;53.480;6.158;2023-02-22T05:02:47;8.20;99.90
52869;DHT22;39100;53.480;6.158;2023-02-22T05:05:15;8.20;99.90
52869;DHT22;39100;53.480;6.158;2023-02-22T05:07:41;8.20;99.90
52869;DHT22;39100;53.480;6.158;2023-02-22T05:10:07;8.20;99.90
52869;DHT22;39100;53.480;6.158;2023-02-22T05:12:34;8.20;99.90
52869;DHT22;39100;53.480;6.158;2023-02-22T05:15:00;8.20;99.90
52869;DHT22;39100;53.480;6.158;2023-02-22T05:17:25;8.20;99.90
52869;DHT22;39100;53.480;6.158;2023-02-22T05:19:51;8.20;99.90
52869;DHT22;39100;53.480;6.158;2023-02-22T05:22:17;8.20;99.90
52869;DHT22;39100;53.480;6.158;2023-02-22T05:24:42;8.20;99.90
52869;DHT22;39100;53.480;6.158;2023-02-22T05:27:08;8.20;99.90
52869;DHT22;39100;53.480;6.158;2023-02-22T05:29:34;8.30;99.90
52869;DHT22;39100;53.480;6.158;2023-02-22T05:31:59;8.10;99.90
52869;DHT22;39100;53.480;6.158;2023-02-22T05:34:27;8.10;99.90
52869;DHT22;39100;53.480;6.158;2023-02-22T05:36:52;8.10;99.90
52869;DHT22;39100;53.480;6.158;2023-02-22T05:39:18;8.10;99.90
52869;DHT22;39100;53.480;6.158;2023-02-22T05:41:44;8.10;99.90
52869;DHT22;39100;53.480;6.158;2023-02-22T05:44:09;8.10;99.90
52869;DHT22;39100;53.480;6.158;2023-02-22T05:46:35;8.10;99.90
52869;DHT22;39100;53.480;6.158;2023-02-22T05:49:00;8.10;99.90
52869;DHT22;39100;53.480;6.158;2023-02-22T05:51:26;8.00;99.90
52869;DHT22;39100;53.480;6.158;2023-02-22T05:53:52;8.10;99.90
52869;DHT22;39100;53.480;6.158;2023-02-22T05:56:25;8.10;99.90
52869;DHT22;39100;53.480;6.158;2023-02-22T05:58:51;8.00;99.90
52869;DHT22;39100;53.480;6.158;2023-02-22T06:01:17;8.00;99.90
52869;DHT22;39100;53.480;6.158;2023-02-22T06:03:49;8.00;99.90
52869;DHT22;39100;53.480;6.158;2023-02-22T06:06:15;8.00;99.90
52869;DHT22;39100;53.480;6.158;2023-02-22T06:08:41;8.00;99.90
52869;DHT22;39100;53.480;6.158;2023-02-22T06:11:07;8.00;99.90
52869;DHT22;39100;53.480;6.158;2023-02-22T06:13:34;7.90;99.90
52869;DHT22;39100;53.480;6.158;2023-02-22T06:16:00;8.00;99.90
52869;DHT22;39100;53.480;6.158;2023-02-22T06:18:26;8.00;99.90
52869;DHT22;39100;53.480;6.158;2023-02-22T06:20:54;7.90;99.90
52869;DHT22;39100;53.480;6.158;2023-02-22T06:23:20;8.00;99.90
52869;DHT22;39100;53.480;6.158;2023-02-22T06:25:45;8.00;99.90
52869;DHT22;39100;53.480;6.158;2023-02-22T06:28:11;8.00;99.90
52869;DHT22;39100;53.480;6.158;2023-02-22T06:30:37;7.90;99.90
52869;DHT22;39100;53.480;6.158;2023-02-22T06:33:02;7.90;99.90
52869;DHT22;39100;53.480;6.158;2023-02-22T06:35:28;7.90;99.90
52869;DHT22;39100;53.480;6.158;2023-02-22T06:37:53;7.90;99.90
52869;DHT22;39100;53.480;6.158;2023-02-22T06:40:19;7.90;99.90
52869;DHT22;39100;53.480;6.158;2023-02-22T06:42:47;7.90;99.90
52869;DHT22;39100;53.480;6.158;2023-02-22T06:45:13;7.90;99.90
52869;DHT22;39100;53.480;6.158;2023-02-22T06:47:39;7.90;99.90
52869;DHT22;39100;53.480;6.158;2023-02-22T06:50:06;7.90;99.90
52869;DHT22;39100;53.480;6.158;2023-02-22T06:52:32;7.90;99.90
52869;DHT22;39100;53.480;6.158;2023-02-22T06:54:58;7.90;99.90
52869;DHT22;39100;53.480;6.158;2023-02-22T06:57:24;7.90;99.90
52869;DHT22;39100;53.480;6.158;2023-02-22T06:59:49;7.90;99.90
52869;DHT22;39100;53.480;6.158;2023-02-22T07:02:15;7.90;99.90
52869;DHT22;39100;53.480;6.158;2023-02-22T07:04:40;7.90;99.90
52869;DHT22;39100;53.480;6.158;2023-02-22T07:07:06;7.90;99.90
52869;DHT22;39100;53.480;6.158;2023-02-22T07:09:32;7.90;99.90
52869;DHT22;39100;53.480;6.158;2023-02-22T07:11:57;8.50;99.90
52869;DHT22;39100;53.480;6.158;2023-02-22T07:14:23;7.90;99.90
52869;DHT22;39100;53.480;6.158;2023-02-22T07:16:49;7.90;99.90
52869;DHT22;39100;53.480;6.158;2023-02-22T07:19:14;7.90;99.90
52869;DHT22;39100;53.480;6.158;2023-02-22T07:21:40;7.90;99.90
52869;DHT22;39100;53.480;6.158;2023-02-22T07:24:12;8.10;99.90
52869;DHT22;39100;53.480;6.158;2023-02-22T07:26:39;7.90;99.90
52869;DHT22;39100;53.480;6.158;2023-02-22T07:29:05;7.90;99.90
52869;DHT22;39100;53.480;6.158;2023-02-22T07:31:35;7.90;99.90
52869;DHT22;39100;53.480;6.158;2023-02-22T07:34:01;7.90;99.90
52869;DHT22;39100;53.480;6.158;2023-02-22T07:36:26;7.90;99.90
52869;DHT22;39100;53.480;6.158;2023-02-22T07:38:52;7.90;99.90
52869;DHT22;39100;53.480;6.158;2023-02-22T07:41:17;8.00;99.90
52869;DHT22;39100;53.480;6.158;2023-02-22T07:43:43;7.90;99.90
52869;DHT22;39100;53.480;6.158;2023-02-22T07:46:08;8.00;99.90
52869;DHT22;39100;53.480;6.158;2023-02-22T07:48:34;8.00;99.90
52869;DHT22;39100;53.480;6.158;2023-02-22T07:50:59;8.00;99.90
52869;DHT22;39100;53.480;6.158;2023-02-22T07:53:28;8.00;99.90
52869;DHT22;39100;53.480;6.158;2023-02-22T07:55:58;8.00;99.90
52869;DHT22;39100;53.480;6.158;2023-02-22T07:58:27;8.00;99.90
52869;DHT22;39100;53.480;6.158;2023-02-22T08:00:53;8.00;99.90
52869;DHT22;39100;53.480;6.158;2023-02-22T08:03:21;8.00;99.90
52869;DHT22;39100;53.480;6.158;2023-02-22T08:05:49;8.10;99.90
52869;DHT22;39100;53.480;6.158;2023-02-22T08:08:16;8.10;99.90
52869;DHT22;39100;53.480;6.158;2023-02-22T08:10:42;8.10;99.90
52869;DHT22;39100;53.480;6.158;2023-02-22T08:13:08;8.10;99.90
52869;DHT22;39100;53.480;6.158;2023-02-22T08:15:36;8.10;99.90
52869;DHT22;39100;53.480;6.158;2023-02-22T08:18:05;8.10;99.90
52869;DHT22;39100;53.480;6.158;2023-02-22T08:20:34;8.00;99.90
52869;DHT22;39100;53.480;6.158;2023-02-22T08:23:00;8.10;99.90
52869;DHT22;39100;53.480;6.158;2023-02-22T08:25:28;8.10;99.90
52869;DHT22;39100;53.480;6.158;2023-02-22T08:27:59;8.10;99.90
52869;DHT22;39100;53.480;6.158;2023-02-22T08:30:27;8.10;99.90
52869;DHT22;39100;53.480;6.158;2023-02-22T08:32:53;8.10;99.90
52869;DHT22;39100;53.480;6.158;2023-02-22T08:35:19;8.10;99.90
52869;DHT22;39100;53.480;6.158;2023-02-22T08:37:48;8.10;99.90
52869;DHT22;39100;53.480;6.158;2023-02-22T08:40:16;8.10;99.90
52869;DHT22;39100;53.480;6.158;2023-02-22T08:42:42;8.10;99.90
52869;DHT22;39100;53.480;6.158;2023-02-22T08:45:08;8.10;99.90
52869;DHT22;39100;53.480;6.158;2023-02-22T08:47:34;8.10;99.90
52869;DHT22;39100;53.480;6.158;2023-02-22T08:50:00;8.10;99.90
52869;DHT22;39100;53.480;6.158;2023-02-22T08:52:25;8.20;99.90
52869;DHT22;39100;53.480;6.158;2023-02-22T08:54:51;8.20;99.90
52869;DHT22;39100;53.480;6.158;2023-02-22T08:57:16;8.20;99.90
52869;DHT22;39100;53.480;6.158;2023-02-22T08:59:42;8.20;99.90
52869;DHT22;39100;53.480;6.158;2023-02-22T09:02:18;8.20;99.90
52869;DHT22;39100;53.480;6.158;2023-02-22T09:04:44;8.40;99.90
52869;DHT22;39100;53.480;6.158;2023-02-22T09:07:10;8.30;99.90
52869;DHT22;39100;53.480;6.158;2023-02-22T09:09:36;8.30;99.90
52869;DHT22;39100;53.480;6.158;2023-02-22T09:12:02;8.30;99.90
52869;DHT22;39100;53.480;6.158;2023-02-22T09:14:28;8.30;99.90
52869;DHT22;39100;53.480;6.158;2023-02-22T09:16:54;8.30;99.90
52869;DHT22;39100;53.480;6.158;2023-02-22T09:19:19;8.40;99.90
52869;DHT22;39100;53.480;6.158;2023-02-22T09:21:52;8.40;99.90
52869;DHT22;39100;53.480;6.158;2023-02-22T09:24:17;8.40;99.90
52869;DHT22;39100;53.480;6.158;2023-02-22T09:26:46;8.40;99.90
52869;DHT22;39100;53.480;6.158;2023-02-22T09:29:12;8.50;99.90
52869;DHT22;39100;53.480;6.158;2023-02-22T09:31:39;8.50;99.90
52869;DHT22;39100;53.480;6.158;2023-02-22T09:34:06;8.50;99.90
52869;DHT22;39100;53.480;6.158;2023-02-22T09:36:44;8.60;99.90
52869;DHT22;39100;53.480;6.158;2023-02-22T09:39:11;8.60;99.90
52869;DHT22;39100;53.480;6.158;2023-02-22T09:44:31;8.60;99.90
52869;DHT22;39100;53.480;6.158;2023-02-22T09:47:01;8.70;99.90
52869;DHT22;39100;53.480;6.158;2023-02-22T09:49:34;8.70;99.90
52869;DHT22;39100;53.480;6.158;2023-02-22T09:52:30;8.80;99.90
52869;DHT22;39100;53.480;6.158;2023-02-22T09:55:11;8.80;99.90
52869;DHT22;39100;53.480;6.158;2023-02-22T09:57:41;8.80;99.90
52869;DHT22;39100;53.480;6.158;2023-02-22T10:00:23;8.80;99.90
52869;DHT22;39100;53.480;6.158;2023-02-22T10:05:26;9.00;99.90
52869;DHT22;39100;53.480;6.158;2023-02-22T10:08:07;9.00;99.90
52869;DHT22;39100;53.480;6.158;2023-02-22T10:10:37;9.10;99.90
52869;DHT22;39100;53.480;6.158;2023-02-22T10:15:58;9.10;99.90
52869;DHT22;39100;53.480;6.158;2023-02-22T10:21:29;9.10;99.90
52869;DHT22;39100;53.480;6.158;2023-02-22T10:24:31;9.10;99.90
52869;DHT22;39100;53.480;6.158;2023-02-22T10:27:09;9.10;99.90
52869;DHT22;39100;53.480;6.158;2023-02-22T10:29:45;9.10;99.90
52869;DHT22;39100;53.480;6.158;2023-02-22T10:32:27;9.10;99.90
52869;DHT22;39100;53.480;6.158;2023-02-22T10:34:53;9.10;99.90
52869;DHT22;39100;53.480;6.158;2023-02-22T10:37:33;9.10;99.90
52869;DHT22;39100;53.480;6.158;2023-02-22T10:42:30;9.00;99.90
52869;DHT22;39100;53.480;6.158;2023-02-22T10:44:56;9.10;99.90
52869;DHT22;39100;53.480;6.158;2023-02-22T10:47:22;9.10;99.90
52869;DHT22;39100;53.480;6.158;2023-02-22T10:49:55;9.10;99.90
52869;DHT22;39100;53.480;6.158;2023-02-22T10:52:30;9.10;99.90
52869;DHT22;39100;53.480;6.158;2023-02-22T10:54:59;9.20;99.90
52869;DHT22;39100;53.480;6.158;2023-02-22T10:57:31;9.30;99.90
52869;DHT22;39100;53.480;6.158;2023-02-22T11:00:22;9.40;99.90
52869;DHT22;39100;53.480;6.158;2023-02-22T11:02:56;9.50;99.90
52869;DHT22;39100;53.480;6.158;2023-02-22T11:05:39;9.70;99.90
52869;DHT22;39100;53.480;6.158;2023-02-22T11:10:39;9.80;99.90
52869;DHT22;39100;53.480;6.158;2023-02-22T11:15:43;9.80;99.90
52869;DHT22;39100;53.480;6.158;2023-02-22T11:18:25;9.80;99.90
52869;DHT22;39100;53.480;6.158;2023-02-22T11:21:05;9.70;99.90
52869;DHT22;39100;53.480;6.158;2023-02-22T11:23:33;9.80;99.90
52869;DHT22;39100;53.480;6.158;2023-02-22T11:26:11;9.80;99.90
52869;DHT22;39100;53.480;6.158;2023-02-22T11:28:43;9.90;99.90
52869;DHT22;39100;53.480;6.158;2023-02-22T11:31:22;10.00;99.90
52869;DHT22;39100;53.480;6.158;2023-02-22T11:33:52;10.00;99.90
52869;DHT22;39100;53.480;6.158;2023-02-22T11:36:41;10.10;99.90
52869;DHT22;39100;53.480;6.158;2023-02-22T11:39:23;10.10;99.90
52869;DHT22;39100;53.480;6.158;2023-02-22T11:41:50;10.20;99.90
52869;DHT22;39100;53.480;6.158;2023-02-22T11:44:30;10.20;99.90
52869;DHT22;39100;53.480;6.158;2023-02-22T11:46:59;10.20;99.90
52869;DHT22;39100;53.480;6.158;2023-02-22T11:49:34;10.10;99.90
52869;DHT22;39100;53.480;6.158;2023-02-22T11:55:05;9.90;99.90
52869;DHT22;39100;53.480;6.158;2023-02-22T11:57:54;9.80;99.90
52869;DHT22;39100;53.480;6.158;2023-02-22T12:00:47;9.80;99.90
52869;DHT22;39100;53.480;6.158;2023-02-22T12:11:36;9.80;99.90
52869;DHT22;39100;53.480;6.158;2023-02-22T12:14:38;9.90;99.90
52869;DHT22;39100;53.480;6.158;2023-02-22T12:19:55;10.00;99.90
52869;DHT22;39100;53.480;6.158;2023-02-22T12:22:31;10.00;99.90
52869;DHT22;39100;53.480;6.158;2023-02-22T12:25:05;10.00;99.90
52869;DHT22;39100;53.480;6.158;2023-02-22T12:27:46;9.90;99.90
52869;DHT22;39100;53.480;6.158;2023-02-22T12:30:19;9.90;99.90
52869;DHT22;39100;53.480;6.158;2023-02-22T12:32:51;10.00;99.90
52869;DHT22;39100;53.480;6.158;2023-02-22T12:35:23;9.90;99.90
52869;DHT22;39100;53.480;6.158;2023-02-22T12:43:26;9.70;99.90
52869;DHT22;39100;53.480;6.158;2023-02-22T12:45:59;9.80;99.90
52869;DHT22;39100;53.480;6.158;2023-02-22T12:48:47;9.80;99.90
52869;DHT22;39100;53.480;6.158;2023-02-22T12:51:20;9.70;99.90
52869;DHT22;39100;53.480;6.158;2023-02-22T12:53:59;9.80;99.90
52869;DHT22;39100;53.480;6.158;2023-02-22T12:56:36;9.70;99.90
52869;DHT22;39100;53.480;6.158;2023-02-22T13:01:57;9.70;99.90
52869;DHT22;39100;53.480;6.158;2023-02-22T13:04:25;9.70;99.90
52869;DHT22;39100;53.480;6.158;2023-02-22T13:07:45;9.70;99.90
52869;DHT22;39100;53.480;6.158;2023-02-22T13:10:12;9.70;99.90
52869;DHT22;39100;53.480;6.158;2023-02-22T13:15:27;9.80;99.90
52869;DHT22;39100;53.480;6.158;2023-02-22T13:17:58;9.80;99.90
52869;DHT22;39100;53.480;6.158;2023-02-22T13:20:57;9.80;99.90
52869;DHT22;39100;53.480;6.158;2023-02-22T13:26:24;9.80;99.90
52869;DHT22;39100;53.480;6.158;2023-02-22T13:29:13;9.80;99.90
52869;DHT22;39100;53.480;6.158;2023-02-22T13:51:53;9.80;99.90
52869;DHT22;39100;53.480;6.158;2023-02-22T13:57:00;9.80;99.90
52869;DHT22;39100;53.480;6.158;2023-02-22T13:59:31;9.80;99.90
52869;DHT22;39100;53.480;6.158;2023-02-22T14:01:58;9.70;99.90
52869;DHT22;39100;53.480;6.158;2023-02-22T14:06:55;9.70;99.90
52869;DHT22;39100;53.480;6.158;2023-02-22T14:09:43;9.70;99.90
52869;DHT22;39100;53.480;6.158;2023-02-22T14:17:48;9.50;99.90
52869;DHT22;39100;53.480;6.158;2023-02-22T14:22:47;9.60;99.90
52869;DHT22;39100;53.480;6.158;2023-02-22T14:25:39;9.60;99.90
52869;DHT22;39100;53.480;6.158;2023-02-22T14:31:14;9.60;99.90
52869;DHT22;39100;53.480;6.158;2023-02-22T14:36:19;9.60;99.90
52869;DHT22;39100;53.480;6.158;2023-02-22T14:38:45;9.60;99.90
52869;DHT22;39100;53.480;6.158;2023-02-22T14:41:13;9.60;99.90
52869;DHT22;39100;53.480;6.158;2023-02-22T14:43:41;9.70;99.90
52869;DHT22;39100;53.480;6.158;2023-02-22T14:46:09;9.70;99.90
52869;DHT22;39100;53.480;6.158;2023-02-22T14:48:39;9.70;99.90
52869;DHT22;39100;53.480;6.158;2023-02-22T14:51:23;9.80;99.90
52869;DHT22;39100;53.480;6.158;2023-02-22T14:53:53;9.80;99.90
52869;DHT22;39100;53.480;6.158;2023-02-22T14:56:25;9.70;99.90
52869;DHT22;39100;53.480;6.158;2023-02-22T14:59:01;9.80;99.90
52869;DHT22;39100;53.480;6.158;2023-02-22T15:01:35;9.80;99.90
52869;DHT22;39100;53.480;6.158;2023-02-22T15:04:17;9.80;99.90
52869;DHT22;39100;53.480;6.158;2023-02-22T15:06:44;9.70;99.90
52869;DHT22;39100;53.480;6.158;2023-02-22T15:09:14;9.70;99.90
52869;DHT22;39100;53.480;6.158;2023-02-22T15:11:49;9.70;99.90
52869;DHT22;39100;53.480;6.158;2023-02-22T15:14:19;9.60;99.90
52869;DHT22;39100;53.480;6.158;2023-02-22T15:16:56;9.70;99.90
52869;DHT22;39100;53.480;6.158;2023-02-22T15:19:28;9.60;99.90
52869;DHT22;39100;53.480;6.158;2023-02-22T15:21:57;9.60;99.90
52869;DHT22;39100;53.480;6.158;2023-02-22T15:24:28;9.60;99.90
52869;DHT22;39100;53.480;6.158;2023-02-22T15:26:55;9.60;99.90
52869;DHT22;39100;53.480;6.158;2023-02-22T15:29:36;9.60;99.90
52869;DHT22;39100;53.480;6.158;2023-02-22T15:32:17;9.60;99.90
52869;DHT22;39100;53.480;6.158;2023-02-22T15:34:43;9.60;99.90
52869;DHT22;39100;53.480;6.158;2023-02-22T15:37:27;9.60;99.90
52869;DHT22;39100;53.480;6.158;2023-02-22T15:40:05;9.60;99.90
52869;DHT22;39100;53.480;6.158;2023-02-22T15:42:32;9.60;99.90
52869;DHT22;39100;53.480;6.158;2023-02-22T15:45:06;9.60;99.90
52869;DHT22;39100;53.480;6.158;2023-02-22T15:47:32;9.60;99.90
52869;DHT22;39100;53.480;6.158;2023-02-22T15:50:25;9.60;99.90
52869;DHT22;39100;53.480;6.158;2023-02-22T15:53:20;9.60;99.90
52869;DHT22;39100;53.480;6.158;2023-02-22T15:55:55;9.60;99.90
52869;DHT22;39100;53.480;6.158;2023-02-22T15:58:23;9.60;99.90
52869;DHT22;39100;53.480;6.158;2023-02-22T16:01:05;9.50;99.90
52869;DHT22;39100;53.480;6.158;2023-02-22T16:03:37;9.60;99.90
52869;DHT22;39100;53.480;6.158;2023-02-22T16:06:12;9.50;99.90
52869;DHT22;39100;53.480;6.158;2023-02-22T16:08:46;9.50;99.90
52869;DHT22;39100;53.480;6.158;2023-02-22T16:11:43;9.50;99.90
52869;DHT22;39100;53.480;6.158;2023-02-22T16:14:29;9.50;99.90
52869;DHT22;39100;53.480;6.158;2023-02-22T16:19:52;9.50;99.90
52869;DHT22;39100;53.480;6.158;2023-02-22T16:22:38;9.50;99.90
52869;DHT22;39100;53.480;6.158;2023-02-22T16:27:54;9.40;99.90
52869;DHT22;39100;53.480;6.158;2023-02-22T16:30:31;9.40;99.90
52869;DHT22;39100;53.480;6.158;2023-02-22T16:32:58;9.40;99.90
52869;DHT22;39100;53.480;6.158;2023-02-22T16:35:26;9.40;99.90
52869;DHT22;39100;53.480;6.158;2023-02-22T16:37:58;9.30;99.90
52869;DHT22;39100;53.480;6.158;2023-02-22T16:43:00;9.30;99.90
52869;DHT22;39100;53.480;6.158;2023-02-22T16:45:26;9.30;99.90
52869;DHT22;39100;53.480;6.158;2023-02-22T16:47:52;9.20;99.90
52869;DHT22;39100;53.480;6.158;2023-02-22T16:50:19;9.20;99.90
52869;DHT22;39100;53.480;6.158;2023-02-22T16:52:46;9.10;99.90
52869;DHT22;39100;53.480;6.158;2023-02-22T16:55:14;9.10;99.90
52869;DHT22;39100;53.480;6.158;2023-02-22T16:57:42;9.00;99.90
52869;DHT22;39100;53.480;6.158;2023-02-22T17:00:18;9.00;99.90
52869;DHT22;39100;53.480;6.158;2023-02-22T17:02:46;9.00;99.90
52869;DHT22;39100;53.480;6.158;2023-02-22T17:05:14;9.00;99.90
52869;DHT22;39100;53.480;6.158;2023-02-22T17:07:40;9.00;99.90
52869;DHT22;39100;53.480;6.158;2023-02-22T17:10:09;9.00;99.90
52869;DHT22;39100;53.480;6.158;2023-02-22T17:12:39;9.00;99.90
52869;DHT22;39100;53.480;6.158;2023-02-22T17:15:18;8.90;99.90
52869;DHT22;39100;53.480;6.158;2023-02-22T17:17:45;8.90;99.90
52869;DHT22;39100;53.480;6.158;2023-02-22T17:20:10;8.90;99.90
52869;DHT22;39100;53.480;6.158;2023-02-22T17:22:36;8.90;99.90
52869;DHT22;39100;53.480;6.158;2023-02-22T17:25:15;8.90;99.90
52869;DHT22;39100;53.480;6.158;2023-02-22T17:27:42;8.80;99.90
52869;DHT22;39100;53.480;6.158;2023-02-22T17:30:08;8.80;99.90
52869;DHT22;39100;53.480;6.158;2023-02-22T17:32:38;8.80;99.90
52869;DHT22;39100;53.480;6.158;2023-02-22T17:35:04;8.80;99.90
52869;DHT22;39100;53.480;6.158;2023-02-22T17:37:30;8.70;99.90
52869;DHT22;39100;53.480;6.158;2023-02-22T17:39:55;8.70;99.90
52869;DHT22;39100;53.480;6.158;2023-02-22T17:42:21;8.70;99.90
52869;DHT22;39100;53.480;6.158;2023-02-22T17:44:46;8.70;99.90
52869;DHT22;39100;53.480;6.158;2023-02-22T17:47:12;8.60;99.90
52869;DHT22;39100;53.480;6.158;2023-02-22T17:49:37;8.60;99.90
52869;DHT22;39100;53.480;6.158;2023-02-22T17:52:03;8.60;99.90
52869;DHT22;39100;53.480;6.158;2023-02-22T17:54:31;8.60;99.90
52869;DHT22;39100;53.480;6.158;2023-02-22T17:56:59;8.60;99.90
52869;DHT22;39100;53.480;6.158;2023-02-22T17:59:25;8.60;99.90
52869;DHT22;39100;53.480;6.158;2023-02-22T18:01:50;8.60;99.90
52869;DHT22;39100;53.480;6.158;2023-02-22T18:04:17;8.60;99.90
52869;DHT22;39100;53.480;6.158;2023-02-22T18:06:42;8.50;99.90
52869;DHT22;39100;53.480;6.158;2023-02-22T18:09:08;8.50;99.90